Time;durP1;ratioP1;P1;durP2;ratioP2;P2;SDS_P1;SDS_P2;PMS_P1;PMS_P2;Temp;Humidity;BMP_temperature;BMP_pressure;BME280_temperature;BME280_humidity;BME280_pressure;Samples;Min_cycle;Max_cycle;Signal;HPM_P1;HPM_P2
2024/02/10 00:03:31;;;;;;;0.20;0.00;;;3.60;99.90;;;;;;20669700;28;21191;-46
2024/02/10 00:13:33;;;;;;;0.95;0.10;;;3.60;99.90;;;;;;20682828;28;20158;-46
2024/02/10 00:23:35;;;;;;;0.17;0.08;;;3.60;99.90;;;;;;20684449;28;20142;-44
2024/02/10 00:33:37;;;;;;;0.03;0.00;;;3.60;99.90;;;;;;20681311;28;20080;-49
2024/02/10 00:43:43;;;;;;;0.10;0.00;;;3.70;99.90;;;;;;20681686;28;20118;-45
2024/02/10 00:53:45;;;;;;;0.10;0.00;;;3.70;99.90;;;;;;20681187;28;20572;-47
2024/02/10 01:03:48;;;;;;;0.77;0.08;;;3.50;99.90;;;;;;20679937;28;20076;-48
2024/02/10 01:13:50;;;;;;;0.28;0.00;;;3.50;99.90;;;;;;20674897;28;21516;-43
2024/02/10 01:23:52;;;;;;;0.10;0.00;;;3.50;99.90;;;;;;20677016;28;20053;-46
2024/02/10 01:33:54;;;;;;;0.00;0.00;;;3.50;99.90;;;;;;20676916;28;20088;-46
2024/02/10 01:43:56;;;;;;;0.00;0.00;;;3.40;99.90;;;;;;20678702;28;20087;-47
2024/02/10 01:53:59;;;;;;;0.00;0.00;;;3.40;99.90;;;;;;20676696;28;20045;-44
2024/02/10 02:04:02;;;;;;;0.10;0.00;;;3.40;99.90;;;;;;20676426;28;20037;-52
2024/02/10 02:14:04;;;;;;;0.20;0.00;;;3.40;99.90;;;;;;20673933;28;20122;-45
2024/02/10 02:24:06;;;;;;;0.00;0.00;;;3.40;99.90;;;;;;20674295;28;20078;-47
2024/02/10 02:34:08;;;;;;;0.10;0.00;;;3.40;99.90;;;;;;20669319;28;20161;-46
2024/02/10 02:44:14;;;;;;;0.00;0.00;;;3.50;99.90;;;;;;20676316;28;20196;-44
2024/02/10 02:54:19;;;;;;;0.65;0.10;;;3.50;99.90;;;;;;20672287;28;21224;-48
2024/02/10 03:04:21;;;;;;;0.20;0.10;;;3.50;99.90;;;;;;20654479;28;20081;-50
2024/02/10 03:14:23;;;;;;;2.25;0.10;;;3.60;99.90;;;;;;20668679;28;20103;-45
2024/02/10 03:24:28;;;;;;;0.20;0.00;;;3.60;99.90;;;;;;20493920;28;20208;-48
2024/02/10 03:34:29;;;;;;;0.65;0.10;;;3.50;99.90;;;;;;20498399;28;20842;-44
2024/02/10 03:44:32;;;;;;;0.65;0.00;;;3.30;99.90;;;;;;20505954;28;20196;-46
2024/02/10 03:54:34;;;;;;;0.38;0.10;;;3.30;99.90;;;;;;20517060;28;20197;-46
2024/02/10 04:04:38;;;;;;;0.38;0.00;;;3.30;99.90;;;;;;20683641;28;20146;-43
2024/02/10 04:14:40;;;;;;;0.10;0.00;;;3.30;99.90;;;;;;20663290;28;20076;-45
2024/02/10 04:24:42;;;;;;;1.77;0.10;;;3.30;99.90;;;;;;20680340;28;20459;-46
2024/02/10 04:34:45;;;;;;;0.30;0.10;;;3.40;99.90;;;;;;20680164;28;20090;-48
2024/02/10 04:44:49;;;;;;;1.15;0.55;;;3.50;99.90;;;;;;20682285;28;20089;-46
2024/02/10 04:54:53;;;;;;;1.17;0.43;;;3.60;99.90;;;;;;20681173;28;20049;-44
2024/02/10 05:04:56;;;;;;;3.22;1.20;;;3.70;99.90;;;;;;20674841;28;21218;-45
2024/02/10 05:14:57;;;;;;;5.22;1.30;;;3.70;99.90;;;;;;20681435;28;20037;-46
2024/02/10 05:25:03;;;;;;;6.43;2.20;;;3.90;99.90;;;;;;20675959;28;20580;-46
2024/02/10 05:35:07;;;;;;;6.85;1.92;;;3.90;99.90;;;;;;20675653;28;20483;-46
2024/02/10 05:45:09;;;;;;;6.55;2.38;;;3.90;99.90;;;;;;20679721;28;20766;-46
2024/02/10 05:55:13;;;;;;;6.53;1.90;;;3.90;99.90;;;;;;20673166;28;20484;-45
2024/02/10 06:05:15;;;;;;;5.00;1.27;;;3.90;99.90;;;;;;20674114;28;21211;-45
2024/02/10 06:15:19;;;;;;;1.60;1.00;;;3.80;99.90;;;;;;20669782;28;21156;-49
2024/02/10 06:25:22;;;;;;;5.10;1.20;;;3.70;99.90;;;;;;20671339;28;20464;-45
2024/02/10 06:35:25;;;;;;;2.17;0.93;;;3.50;99.90;;;;;;20669725;28;20114;-46
2024/02/10 06:45:28;;;;;;;1.15;0.50;;;3.50;99.90;;;;;;20669548;28;20098;-49
2024/02/10 06:55:31;;;;;;;3.75;0.90;;;3.40;99.90;;;;;;20667380;28;20073;-47
2024/02/10 07:05:33;;;;;;;4.03;1.42;;;3.40;99.90;;;;;;20666729;28;20167;-48
2024/02/10 07:15:38;;;;;;;3.05;1.35;;;3.40;99.90;;;;;;20673784;28;20068;-49
2024/02/10 07:25:44;;;;;;;3.25;1.15;;;3.50;99.90;;;;;;20685041;28;20203;-47
2024/02/10 07:35:49;;;;;;;6.32;1.67;;;3.50;99.90;;;;;;20683682;28;20202;-45
2024/02/10 07:45:55;;;;;;;3.65;1.05;;;3.40;99.90;;;;;;20683772;28;20084;-43
2024/02/10 07:55:57;;;;;;;2.80;1.25;;;3.50;99.90;;;;;;20682677;28;20170;-46
2024/02/10 08:05:59;;;;;;;6.32;1.65;;;3.70;99.90;;;;;;20681068;28;20037;-42
2024/02/10 08:16:01;;;;;;;16.50;10.10;;;3.60;99.90;;;;;;20679784;28;20499;-46
2024/02/10 08:26:05;;;;;;;4.97;2.13;;;3.60;99.90;;;;;;20663958;28;20731;-49
2024/02/10 08:36:07;;;;;;;5.95;4.20;;;3.60;99.90;;;;;;20677165;28;20130;-49
2024/02/10 08:46:11;;;;;;;2.08;0.73;;;3.60;99.90;;;;;;20678319;28;21097;-43
2024/02/10 08:56:13;;;;;;;1.20;0.80;;;3.50;99.90;;;;;;20674723;28;20122;-45
2024/02/10 09:06:15;;;;;;;8.13;5.82;;;3.40;99.90;;;;;;20675106;28;20110;-47
2024/02/10 09:16:17;;;;;;;1.40;0.60;;;3.50;99.90;;;;;;20654777;28;20479;-44
2024/02/10 09:26:24;;;;;;;4.03;0.77;;;3.50;99.90;;;;;;20669968;28;20077;-46
2024/02/10 09:36:26;;;;;;;1.38;0.57;;;3.50;99.90;;;;;;20671708;28;20134;-44
2024/02/10 09:46:35;;;;;;;1.92;1.30;;;3.70;99.90;;;;;;20671280;28;20785;-44
2024/02/10 09:56:37;;;;;;;0.30;0.20;;;3.90;99.90;;;;;;20670779;28;20037;-45
2024/02/10 10:06:43;;;;;;;1.80;0.30;;;4.00;99.90;;;;;;20670397;28;20092;-44
2024/02/10 10:17:01;;;;;;;0.45;0.30;;;4.00;99.90;;;;;;20669839;28;20611;-45
2024/02/10 10:27:03;;;;;;;2.70;0.52;;;4.00;99.90;;;;;;20667306;28;21208;-46
2024/02/10 10:37:05;;;;;;;1.17;1.02;;;4.20;99.90;;;;;;20665515;28;20029;-45
2024/02/10 10:47:10;;;;;;;1.10;0.20;;;4.50;99.90;;;;;;20665318;28;20796;-53
2024/02/10 10:57:21;;;;;;;0.95;0.30;;;4.50;99.90;;;;;;20668007;28;20083;-47
2024/02/10 11:07:32;;;;;;;1.50;0.82;;;4.50;99.90;;;;;;20664444;28;20134;-46
2024/02/10 11:17:34;;;;;;;1.27;0.35;;;4.60;99.90;;;;;;20647042;28;20678;-46
2024/02/10 11:27:37;;;;;;;1.88;0.85;;;4.60;99.90;;;;;;20666136;28;20120;-43
2024/02/10 11:37:39;;;;;;;0.32;0.20;;;4.50;99.90;;;;;;20667379;28;20103;-45
2024/02/10 11:47:42;;;;;;;1.23;0.45;;;4.50;99.90;;;;;;20667112;28;20806;-43
2024/02/10 11:57:44;;;;;;;0.47;0.10;;;4.30;99.90;;;;;;20663347;28;20453;-44
2024/02/10 12:07:46;;;;;;;1.85;0.30;;;4.30;99.90;;;;;;20677981;28;20065;-45
2024/02/10 12:17:48;;;;;;;1.10;0.30;;;4.30;99.90;;;;;;20679222;28;20073;-46
2024/02/10 12:27:50;;;;;;;0.20;0.20;;;4.30;99.90;;;;;;20677776;28;20115;-47
2024/02/10 12:37:52;;;;;;;0.40;0.20;;;4.40;99.90;;;;;;20676762;28;20684;-47
2024/02/10 12:47:54;;;;;;;0.10;0.10;;;4.50;99.90;;;;;;20679252;28;20185;-45
2024/02/10 12:57:56;;;;;;;0.30;0.10;;;4.60;99.90;;;;;;20675517;28;20065;-43
2024/02/10 13:07:58;;;;;;;0.25;0.17;;;4.70;99.90;;;;;;20673751;28;20736;-44
2024/02/10 13:18:00;;;;;;;0.55;0.15;;;4.80;99.90;;;;;;20674122;28;20110;-44
2024/02/10 13:28:04;;;;;;;0.63;0.20;;;4.70;99.90;;;;;;20669260;28;20072;-46
2024/02/10 14:08:49;;;;;;;4.10;1.63;;;4.40;99.90;;;;;;20673834;28;20686;-44
2024/02/10 14:18:51;;;;;;;23.88;15.25;;;4.40;99.90;;;;;;20672959;28;20169;-47
2024/02/10 14:28:57;;;;;;;0.30;0.20;;;4.30;99.90;;;;;;20667226;28;20805;-44
2024/02/10 14:39:06;;;;;;;1.10;0.60;;;4.30;99.90;;;;;;20667454;28;20099;-47
2024/02/10 14:49:08;;;;;;;3.97;2.80;;;4.30;99.90;;;;;;20669949;28;20111;-42
2024/02/10 14:59:13;;;;;;;0.10;0.10;;;4.20;99.90;;;;;;20668871;28;21099;-43
2024/02/10 15:09:19;;;;;;;0.40;0.20;;;4.10;99.90;;;;;;20666202;28;20134;-48
2024/02/10 15:19:21;;;;;;;0.10;0.10;;;4.10;99.90;;;;;;20665931;28;20392;-45
2024/02/10 15:29:22;;;;;;;0.00;0.00;;;4.00;99.90;;;;;;20666936;28;20329;-45
2024/02/10 15:39:25;;;;;;;0.10;0.10;;;4.00;99.90;;;;;;20673284;28;20122;-47
2024/02/10 15:49:27;;;;;;;52.90;18.05;;;4.00;99.90;;;;;;20678384;28;20036;-43
2024/02/10 15:59:32;;;;;;;7.18;6.43;;;4.00;99.90;;;;;;20660833;28;20347;-45
2024/02/10 16:09:34;;;;;;;3.15;2.33;;;4.20;99.90;;;;;;20679164;28;20069;-46
2024/02/10 16:19:39;;;;;;;0.00;0.00;;;4.20;99.90;;;;;;20680764;28;20076;-46
2024/02/10 16:29:40;;;;;;;0.20;0.00;;;4.00;99.90;;;;;;20659021;28;20049;-45
2024/02/10 16:39:47;;;;;;;0.00;0.00;;;3.90;99.90;;;;;;20678690;28;20065;-45
2024/02/10 16:49:50;;;;;;;0.10;0.10;;;3.80;99.90;;;;;;20678379;28;20712;-46
2024/02/10 16:59:53;;;;;;;0.30;0.05;;;3.80;99.90;;;;;;20679297;28;20684;-50
2024/02/10 17:09:55;;;;;;;0.00;0.00;;;3.90;99.90;;;;;;20681948;28;21145;-44
2024/02/10 17:20:00;;;;;;;0.00;0.00;;;3.90;99.90;;;;;;20675940;28;20044;-43
2024/02/10 17:30:03;;;;;;;0.00;0.00;;;4.10;99.90;;;;;;20676754;28;21140;-49
2024/02/10 17:40:05;;;;;;;0.32;0.00;;;4.20;99.90;;;;;;20675937;28;20061;-44
2024/02/10 17:50:07;;;;;;;0.68;0.00;;;4.10;99.90;;;;;;20676188;28;20110;-43
2024/02/10 18:00:15;;;;;;;0.57;0.20;;;4.10;99.90;;;;;;20673915;28;20127;-44
2024/02/10 18:10:18;;;;;;;2.70;0.30;;;4.10;99.90;;;;;;20675528;28;20061;-45
2024/02/10 18:20:21;;;;;;;1.58;0.20;;;4.10;99.90;;;;;;20671292;28;20574;-45
2024/02/10 18:30:22;;;;;;;0.77;0.20;;;4.20;99.90;;;;;;20672879;28;20159;-42
2024/02/10 18:40:29;;;;;;;6.82;3.00;;;4.20;99.90;;;;;;20665443;28;20495;-43
2024/02/10 18:50:34;;;;;;;1.42;0.40;;;4.10;99.90;;;;;;20673509;28;20065;-45
2024/02/10 19:00:36;;;;;;;0.32;0.13;;;4.00;99.90;;;;;;20672751;28;20492;-47
2024/02/10 19:10:41;;;;;;;3.75;1.00;;;4.10;99.90;;;;;;20668059;28;20133;-46
2024/02/10 19:20:42;;;;;;;1.42;0.30;;;4.10;99.90;;;;;;20670006;28;21177;-43
2024/02/10 19:30:45;;;;;;;1.02;0.30;;;4.10;99.90;;;;;;20664360;28;20118;-47
2024/02/10 19:40:47;;;;;;;1.95;0.40;;;4.10;99.90;;;;;;20667228;28;20503;-48
2024/02/10 19:50:52;;;;;;;1.77;0.30;;;4.00;99.90;;;;;;20666374;28;20309;-47
2024/02/10 20:00:57;;;;;;;1.55;0.10;;;4.00;99.90;;;;;;20671304;28;20119;-45
2024/02/10 20:10:59;;;;;;;1.58;1.17;;;3.90;99.90;;;;;;20668162;28;20072;-41
2024/02/10 20:21:03;;;;;;;1.17;0.20;;;3.90;99.90;;;;;;20668153;28;20098;-44
2024/02/10 20:31:16;;;;;;;1.90;0.20;;;3.90;99.90;;;;;;20682595;28;20444;-45
2024/02/10 20:41:19;;;;;;;0.40;0.10;;;3.90;99.90;;;;;;20662583;28;20806;-48
2024/02/10 20:51:22;;;;;;;0.32;0.10;;;3.90;99.90;;;;;;20683053;28;20720;-45
2024/02/10 21:01:25;;;;;;;0.00;0.00;;;3.80;99.90;;;;;;20676517;28;20081;-44
2024/02/10 21:11:33;;;;;;;0.10;0.00;;;3.70;99.90;;;;;;20678876;28;20098;-44
2024/02/10 21:21:40;;;;;;;0.13;0.08;;;3.60;99.90;;;;;;20672084;28;21814;-47
2024/02/10 21:31:42;;;;;;;0.45;0.00;;;3.50;99.90;;;;;;20678208;28;20068;-46
2024/02/10 21:41:47;;;;;;;0.20;0.00;;;3.50;99.90;;;;;;20676272;28;20187;-45
2024/02/10 21:51:50;;;;;;;0.00;0.00;;;3.40;99.90;;;;;;20659036;28;20118;-48
2024/02/10 22:01:52;;;;;;;0.00;0.00;;;3.40;99.90;;;;;;20676089;28;20068;-44
2024/02/10 22:11:58;;;;;;;0.40;0.10;;;3.40;99.90;;;;;;20656197;28;20091;-44
2024/02/10 22:22:03;;;;;;;2.17;0.00;;;3.30;99.90;;;;;;20668466;28;20076;-47
2024/02/10 22:32:06;;;;;;;0.00;0.00;;;3.30;99.90;;;;;;20494946;28;20524;-45
2024/02/10 22:42:12;;;;;;;0.00;0.00;;;3.20;99.90;;;;;;20496200;28;20191;-45
2024/02/10 22:52:23;;;;;;;0.10;0.00;;;3.20;99.90;;;;;;20491318;28;20117;-43
2024/02/10 23:02:25;;;;;;;;;;;3.10;99.90;;;;;;20639556;28;20080;-47
2024/02/10 23:12:26;;;;;;;0.00;0.00;;;3.10;99.90;;;;;;20667627;28;19955;-46
2024/02/10 23:22:31;;;;;;;0.10;0.10;;;3.10;99.90;;;;;;20668005;28;20647;-43
2024/02/10 23:32:33;;;;;;;0.00;0.00;;;3.20;99.90;;;;;;20670617;28;20045;-47
2024/02/10 23:42:35;;;;;;;0.45;0.10;;;3.20;99.90;;;;;;20667329;28;20118;-49
2024/02/10 23:52:40;;;;;;;0.85;0.68;;;3.20;99.90;;;;;;20670015;28;20045;-46
